Terminal Aerodrome Forecast
Issued by NWS

Current Version | Previous Version | Text Only | Print | Product List | Glossary On
Versions: 1 2 3 4 5 6 7 8 9 10 11 12 13 14 15 16
000
FTUS44 KTSA 281140
TAFRVS
TAF
KRVS 281140Z 2812/2912 17011KT P6SM VCSH BKN120
     FM281800 17011KT P6SM BKN120
     FM290100 16006KT P6SM BKN120
      TEMPO 2905/2909 5SM -TSRA BKN050CB=

USA.gov is the U.S. government's official web portal to all federal, state and local government web resources and services.